sensor_id;sensor_type;location;lat;lon;timestamp;pressure;altitude;pressure_sealevel;temperature
68510;BMP180;55512;50.102;19.958;2023-05-10T00:01:58;99023.80;;;8.04
68510;BMP180;55512;50.102;19.958;2023-05-10T00:04:23;99021.80;;;8.00
68510;BMP180;55512;50.102;19.958;2023-05-10T00:06:53;99021.00;;;8.00
68510;BMP180;55512;50.102;19.958;2023-05-10T00:09:18;99023.20;;;8.00
68510;BMP180;55512;50.102;19.958;2023-05-10T00:11:44;99015.20;;;7.92
68510;BMP180;55512;50.102;19.958;2023-05-10T00:14:11;99014.40;;;7.90
68510;BMP180;55512;50.102;19.958;2023-05-10T00:16:37;99012.20;;;7.90
68510;BMP180;55512;50.102;19.958;2023-05-10T00:19:02;99012.60;;;7.90
68510;BMP180;55512;50.102;19.958;2023-05-10T00:21:28;99014.00;;;7.90
68510;BMP180;55512;50.102;19.958;2023-05-10T00:23:54;99007.00;;;7.80
68510;BMP180;55512;50.102;19.958;2023-05-10T00:26:20;99005.80;;;7.80
68510;BMP180;55512;50.102;19.958;2023-05-10T00:28:46;99002.40;;;7.80
68510;BMP180;55512;50.102;19.958;2023-05-10T00:31:11;99000.80;;;7.70
68510;BMP180;55512;50.102;19.958;2023-05-10T00:33:37;98997.00;;;7.70
68510;BMP180;55512;50.102;19.958;2023-05-10T00:36:03;98994.20;;;7.70
68510;BMP180;55512;50.102;19.958;2023-05-10T00:38:28;98994.20;;;7.60
68510;BMP180;55512;50.102;19.958;2023-05-10T00:40:54;98996.20;;;7.60
68510;BMP180;55512;50.102;19.958;2023-05-10T00:43:20;98995.80;;;7.60
68510;BMP180;55512;50.102;19.958;2023-05-10T00:45:45;98992.60;;;7.60
68510;BMP180;55512;50.102;19.958;2023-05-10T00:48:11;98990.80;;;7.60
68510;BMP180;55512;50.102;19.958;2023-05-10T00:50:38;98988.60;;;7.60
68510;BMP180;55512;50.102;19.958;2023-05-10T00:53:03;98989.80;;;7.60
68510;BMP180;55512;50.102;19.958;2023-05-10T00:55:30;98986.80;;;7.50
68510;BMP180;55512;50.102;19.958;2023-05-10T00:57:56;98985.40;;;7.50
68510;BMP180;55512;50.102;19.958;2023-05-10T01:00:22;98980.00;;;7.50
68510;BMP180;55512;50.102;19.958;2023-05-10T01:02:48;98978.00;;;7.50
68510;BMP180;55512;50.102;19.958;2023-05-10T01:05:15;98981.40;;;7.40
68510;BMP180;55512;50.102;19.958;2023-05-10T01:07:41;98976.00;;;7.40
68510;BMP180;55512;50.102;19.958;2023-05-10T01:10:08;98979.40;;;7.40
68510;BMP180;55512;50.102;19.958;2023-05-10T01:12:40;98976.80;;;7.40
68510;BMP180;55512;50.102;19.958;2023-05-10T01:15:09;98972.00;;;7.32
68510;BMP180;55512;50.102;19.958;2023-05-10T01:17:38;98972.80;;;7.30
68510;BMP180;55512;50.102;19.958;2023-05-10T01:20:07;98975.60;;;7.30
68510;BMP180;55512;50.102;19.958;2023-05-10T01:26:17;98970.20;;;7.30
68510;BMP180;55512;50.102;19.958;2023-05-10T01:29:29;98968.60;;;7.20
68510;BMP180;55512;50.102;19.958;2023-05-10T01:32:20;98964.80;;;7.20
68510;BMP180;55512;50.102;19.958;2023-05-10T01:35:34;98964.80;;;7.20
68510;BMP180;55512;50.102;19.958;2023-05-10T01:38:16;98966.60;;;7.12
68510;BMP180;55512;50.102;19.958;2023-05-10T01:41:01;98967.80;;;7.10
68510;BMP180;55512;50.102;19.958;2023-05-10T01:43:39;98966.60;;;7.10
68510;BMP180;55512;50.102;19.958;2023-05-10T01:46:12;98968.00;;;7.10
68510;BMP180;55512;50.102;19.958;2023-05-10T01:48:48;98963.40;;;7.00
68510;BMP180;55512;50.102;19.958;2023-05-10T01:51:24;98960.20;;;7.00
68510;BMP180;55512;50.102;19.958;2023-05-10T01:53:58;98955.60;;;7.00
68510;BMP180;55512;50.102;19.958;2023-05-10T01:56:26;98956.60;;;6.94
68510;BMP180;55512;50.102;19.958;2023-05-10T01:58:55;98955.60;;;6.90
68510;BMP180;55512;50.102;19.958;2023-05-10T02:01:22;98952.20;;;6.90
68510;BMP180;55512;50.102;19.958;2023-05-10T02:03:50;98955.40;;;6.88
68510;BMP180;55512;50.102;19.958;2023-05-10T02:06:19;98953.00;;;6.84
68510;BMP180;55512;50.102;19.958;2023-05-10T02:08:47;98949.80;;;6.80
68510;BMP180;55512;50.102;19.958;2023-05-10T02:11:15;98947.80;;;6.80
68510;BMP180;55512;50.102;19.958;2023-05-10T02:13:42;98942.80;;;6.80
68510;BMP180;55512;50.102;19.958;2023-05-10T02:16:09;98936.60;;;6.76
68510;BMP180;55512;50.102;19.958;2023-05-10T02:18:37;98940.40;;;6.70
68510;BMP180;55512;50.102;19.958;2023-05-10T02:21:04;98936.20;;;6.70
68510;BMP180;55512;50.102;19.958;2023-05-10T02:23:30;98937.40;;;6.66
68510;BMP180;55512;50.102;19.958;2023-05-10T02:25:57;98934.80;;;6.60
68510;BMP180;55512;50.102;19.958;2023-05-10T02:28:26;98932.00;;;6.60
68510;BMP180;55512;50.102;19.958;2023-05-10T02:30:52;98933.60;;;6.60
68510;BMP180;55512;50.102;19.958;2023-05-10T02:33:20;98932.60;;;6.60
68510;BMP180;55512;50.102;19.958;2023-05-10T02:35:46;98930.00;;;6.60
68510;BMP180;55512;50.102;19.958;2023-05-10T02:38:14;98926.60;;;6.60
68510;BMP180;55512;50.102;19.958;2023-05-10T02:40:42;98928.20;;;6.56
68510;BMP180;55512;50.102;19.958;2023-05-10T02:43:12;98924.00;;;6.52
68510;BMP180;55512;50.102;19.958;2023-05-10T02:45:41;98922.20;;;6.50
68510;BMP180;55512;50.102;19.958;2023-05-10T02:48:07;98924.00;;;6.50
68510;BMP180;55512;50.102;19.958;2023-05-10T02:50:34;98930.20;;;6.50
68510;BMP180;55512;50.102;19.958;2023-05-10T02:53:09;98926.20;;;6.50
68510;BMP180;55512;50.102;19.958;2023-05-10T02:55:39;98929.00;;;6.50
68510;BMP180;55512;50.102;19.958;2023-05-10T02:58:05;98931.40;;;6.50
68510;BMP180;55512;50.102;19.958;2023-05-10T03:00:31;98926.60;;;6.50
68510;BMP180;55512;50.102;19.958;2023-05-10T03:02:57;98922.20;;;6.42
68510;BMP180;55512;50.102;19.958;2023-05-10T03:05:23;98921.40;;;6.42
68510;BMP180;55512;50.102;19.958;2023-05-10T03:07:50;98924.00;;;6.40
68510;BMP180;55512;50.102;19.958;2023-05-10T03:10:17;98925.80;;;6.40
68510;BMP180;55512;50.102;19.958;2023-05-10T03:13:55;98925.80;;;6.40
68510;BMP180;55512;50.102;19.958;2023-05-10T03:16:08;98928.00;;;6.38
68510;BMP180;55512;50.102;19.958;2023-05-10T03:18:52;98928.40;;;6.34
68510;BMP180;55512;50.102;19.958;2023-05-10T03:21:24;98926.40;;;6.30
68510;BMP180;55512;50.102;19.958;2023-05-10T03:23:59;98928.60;;;6.30
68510;BMP180;55512;50.102;19.958;2023-05-10T03:26:28;98924.00;;;6.32
68510;BMP180;55512;50.102;19.958;2023-05-10T03:28:57;98921.60;;;6.32
68510;BMP180;55512;50.102;19.958;2023-05-10T03:31:24;98922.80;;;6.30
68510;BMP180;55512;50.102;19.958;2023-05-10T03:33:51;98920.00;;;6.32
68510;BMP180;55512;50.102;19.958;2023-05-10T03:36:18;98922.40;;;6.40
68510;BMP180;55512;50.102;19.958;2023-05-10T03:38:45;98921.60;;;6.40
68510;BMP180;55512;50.102;19.958;2023-05-10T03:41:10;98916.80;;;6.40
68510;BMP180;55512;50.102;19.958;2023-05-10T03:43:36;98917.40;;;6.40
68510;BMP180;55512;50.102;19.958;2023-05-10T03:46:05;98921.60;;;6.40
68510;BMP180;55512;50.102;19.958;2023-05-10T03:48:32;98916.40;;;6.42
68510;BMP180;55512;50.102;19.958;2023-05-10T03:50:58;98921.20;;;6.50
68510;BMP180;55512;50.102;19.958;2023-05-10T03:53:23;98923.40;;;6.50
68510;BMP180;55512;50.102;19.958;2023-05-10T03:55:49;98919.40;;;6.50
68510;BMP180;55512;50.102;19.958;2023-05-10T03:58:14;98925.00;;;6.60
68510;BMP180;55512;50.102;19.958;2023-05-10T04:00:40;98923.80;;;6.60
68510;BMP180;55512;50.102;19.958;2023-05-10T04:03:11;98926.00;;;6.70
68510;BMP180;55512;50.102;19.958;2023-05-10T04:05:37;98928.60;;;6.70
68510;BMP180;55512;50.102;19.958;2023-05-10T04:08:03;98925.40;;;6.80
68510;BMP180;55512;50.102;19.958;2023-05-10T04:10:29;98926.20;;;6.80
68510;BMP180;55512;50.102;19.958;2023-05-10T04:12:56;98924.80;;;6.90
68510;BMP180;55512;50.102;19.958;2023-05-10T04:15:23;98919.80;;;6.90
68510;BMP180;55512;50.102;19.958;2023-05-10T04:17:49;98918.80;;;6.98
68510;BMP180;55512;50.102;19.958;2023-05-10T04:20:15;98917.40;;;7.00
68510;BMP180;55512;50.102;19.958;2023-05-10T04:22:41;98917.80;;;7.10
68510;BMP180;55512;50.102;19.958;2023-05-10T04:25:07;98917.40;;;7.12
68510;BMP180;55512;50.102;19.958;2023-05-10T04:27:33;98923.20;;;7.20
68510;BMP180;55512;50.102;19.958;2023-05-10T04:29:59;98924.60;;;7.22
68510;BMP180;55512;50.102;19.958;2023-05-10T04:32:24;98927.00;;;7.30
68510;BMP180;55512;50.102;19.958;2023-05-10T04:34:50;98925.60;;;7.34
68510;BMP180;55512;50.102;19.958;2023-05-10T04:37:17;98925.80;;;7.40
68510;BMP180;55512;50.102;19.958;2023-05-10T04:39:43;98931.20;;;7.42
68510;BMP180;55512;50.102;19.958;2023-05-10T04:42:08;98929.20;;;7.50
68510;BMP180;55512;50.102;19.958;2023-05-10T04:44:34;98931.00;;;7.60
68510;BMP180;55512;50.102;19.958;2023-05-10T04:47:00;98930.60;;;7.60
68510;BMP180;55512;50.102;19.958;2023-05-10T04:49:26;98930.00;;;7.70
68510;BMP180;55512;50.102;19.958;2023-05-10T04:51:51;98932.60;;;7.80
68510;BMP180;55512;50.102;19.958;2023-05-10T04:54:17;98923.40;;;7.80
68510;BMP180;55512;50.102;19.958;2023-05-10T04:56:42;98929.00;;;7.90
68510;BMP180;55512;50.102;19.958;2023-05-10T04:59:08;98934.40;;;7.96
68510;BMP180;55512;50.102;19.958;2023-05-10T05:01:33;98930.00;;;8.00
68510;BMP180;55512;50.102;19.958;2023-05-10T05:03:59;98928.60;;;8.10
68510;BMP180;55512;50.102;19.958;2023-05-10T05:06:25;98928.20;;;8.12
68510;BMP180;55512;50.102;19.958;2023-05-10T05:08:51;98929.40;;;8.20
68510;BMP180;55512;50.102;19.958;2023-05-10T05:11:17;98925.60;;;8.30
68510;BMP180;55512;50.102;19.958;2023-05-10T05:13:43;98929.00;;;8.38
68510;BMP180;55512;50.102;19.958;2023-05-10T05:16:08;98926.80;;;8.40
68510;BMP180;55512;50.102;19.958;2023-05-10T05:18:34;98919.00;;;8.50
68510;BMP180;55512;50.102;19.958;2023-05-10T05:20:59;98920.80;;;8.58
68510;BMP180;55512;50.102;19.958;2023-05-10T05:23:25;98922.40;;;8.60
68510;BMP180;55512;50.102;19.958;2023-05-10T05:25:52;98924.00;;;8.70
68510;BMP180;55512;50.102;19.958;2023-05-10T05:28:20;98918.80;;;8.80
68510;BMP180;55512;50.102;19.958;2023-05-10T05:30:46;98919.20;;;8.84
68510;BMP180;55512;50.102;19.958;2023-05-10T05:33:13;98920.80;;;8.90
68510;BMP180;55512;50.102;19.958;2023-05-10T05:35:39;98920.80;;;9.00
68510;BMP180;55512;50.102;19.958;2023-05-10T05:38:04;98924.60;;;9.10
68510;BMP180;55512;50.102;19.958;2023-05-10T05:40:30;98927.40;;;9.20
68510;BMP180;55512;50.102;19.958;2023-05-10T05:42:55;98925.20;;;9.26
68510;BMP180;55512;50.102;19.958;2023-05-10T05:45:21;98928.20;;;9.30
68510;BMP180;55512;50.102;19.958;2023-05-10T05:47:47;98926.60;;;9.40
68510;BMP180;55512;50.102;19.958;2023-05-10T05:50:12;98927.20;;;9.50
68510;BMP180;55512;50.102;19.958;2023-05-10T05:52:38;98931.60;;;9.58
68510;BMP180;55512;50.102;19.958;2023-05-10T05:55:04;98934.20;;;9.60
68510;BMP180;55512;50.102;19.958;2023-05-10T05:57:29;98936.40;;;9.70
68510;BMP180;55512;50.102;19.958;2023-05-10T05:59:55;98939.20;;;9.80
68510;BMP180;55512;50.102;19.958;2023-05-10T06:02:21;98940.20;;;9.90
68510;BMP180;55512;50.102;19.958;2023-05-10T06:04:46;98941.40;;;9.90
68510;BMP180;55512;50.102;19.958;2023-05-10T06:07:12;98944.00;;;10.00
68510;BMP180;55512;50.102;19.958;2023-05-10T06:09:37;98942.20;;;10.10
68510;BMP180;55512;50.102;19.958;2023-05-10T06:12:03;98942.20;;;10.20
68510;BMP180;55512;50.102;19.958;2023-05-10T06:14:28;98944.60;;;10.22
68510;BMP180;55512;50.102;19.958;2023-05-10T06:16:54;98941.40;;;10.30
68510;BMP180;55512;50.102;19.958;2023-05-10T06:19:19;98944.40;;;10.40
68510;BMP180;55512;50.102;19.958;2023-05-10T06:21:45;98949.00;;;10.48
68510;BMP180;55512;50.102;19.958;2023-05-10T06:24:10;98942.80;;;10.50
68510;BMP180;55512;50.102;19.958;2023-05-10T06:26:36;98940.80;;;10.60
68510;BMP180;55512;50.102;19.958;2023-05-10T06:29:01;98944.00;;;10.70
68510;BMP180;55512;50.102;19.958;2023-05-10T06:31:28;98945.60;;;10.72
68510;BMP180;55512;50.102;19.958;2023-05-10T06:33:53;98944.00;;;10.80
68510;BMP180;55512;50.102;19.958;2023-05-10T06:36:19;98942.20;;;10.90
68510;BMP180;55512;50.102;19.958;2023-05-10T06:38:44;98946.40;;;10.94
68510;BMP180;55512;50.102;19.958;2023-05-10T06:41:10;98947.40;;;11.00
68510;BMP180;55512;50.102;19.958;2023-05-10T06:43:35;98944.60;;;11.10
68510;BMP180;55512;50.102;19.958;2023-05-10T06:46:05;98942.60;;;11.20
68510;BMP180;55512;50.102;19.958;2023-05-10T06:48:31;98941.40;;;11.30
68510;BMP180;55512;50.102;19.958;2023-05-10T06:50:57;98936.60;;;11.40
68510;BMP180;55512;50.102;19.958;2023-05-10T06:53:23;98939.00;;;11.50
68510;BMP180;55512;50.102;19.958;2023-05-10T06:55:49;98937.60;;;11.58
68510;BMP180;55512;50.102;19.958;2023-05-10T06:58:14;98943.60;;;11.60
68510;BMP180;55512;50.102;19.958;2023-05-10T07:00:40;98947.00;;;11.70
68510;BMP180;55512;50.102;19.958;2023-05-10T07:03:09;98944.00;;;11.80
68510;BMP180;55512;50.102;19.958;2023-05-10T07:05:35;98948.60;;;11.90
68510;BMP180;55512;50.102;19.958;2023-05-10T07:08:08;98941.60;;;12.00
68510;BMP180;55512;50.102;19.958;2023-05-10T07:10:34;98941.80;;;12.02
68510;BMP180;55512;50.102;19.958;2023-05-10T07:12:59;98944.40;;;12.10
68510;BMP180;55512;50.102;19.958;2023-05-10T07:15:26;98935.40;;;12.20
68510;BMP180;55512;50.102;19.958;2023-05-10T07:17:52;98943.80;;;12.30
68510;BMP180;55512;50.102;19.958;2023-05-10T07:20:18;98947.40;;;12.34
68510;BMP180;55512;50.102;19.958;2023-05-10T07:22:44;98944.20;;;12.40
68510;BMP180;55512;50.102;19.958;2023-05-10T07:25:09;98947.80;;;12.50
68510;BMP180;55512;50.102;19.958;2023-05-10T07:27:35;98948.20;;;12.60
68510;BMP180;55512;50.102;19.958;2023-05-10T07:30:00;98948.20;;;12.70
68510;BMP180;55512;50.102;19.958;2023-05-10T07:32:26;98947.80;;;12.80
68510;BMP180;55512;50.102;19.958;2023-05-10T07:34:52;98948.80;;;12.90
68510;BMP180;55512;50.102;19.958;2023-05-10T07:37:17;98942.60;;;12.94
68510;BMP180;55512;50.102;19.958;2023-05-10T07:39:43;98943.60;;;13.00
68510;BMP180;55512;50.102;19.958;2023-05-10T07:42:09;98945.20;;;13.10
68510;BMP180;55512;50.102;19.958;2023-05-10T07:44:34;98943.60;;;13.20
68510;BMP180;55512;50.102;19.958;2023-05-10T07:47:00;98941.60;;;13.24
68510;BMP180;55512;50.102;19.958;2023-05-10T07:49:25;98939.00;;;13.30
68510;BMP180;55512;50.102;19.958;2023-05-10T07:51:51;98939.00;;;13.40
68510;BMP180;55512;50.102;19.958;2023-05-10T07:54:16;98944.20;;;13.50
68510;BMP180;55512;50.102;19.958;2023-05-10T07:56:42;98938.00;;;13.60
68510;BMP180;55512;50.102;19.958;2023-05-10T07:59:16;98934.80;;;13.68
68510;BMP180;55512;50.102;19.958;2023-05-10T08:01:43;98935.40;;;13.76
68510;BMP180;55512;50.102;19.958;2023-05-10T08:04:09;98933.80;;;13.80
68510;BMP180;55512;50.102;19.958;2023-05-10T08:06:34;98934.40;;;13.90
68510;BMP180;55512;50.102;19.958;2023-05-10T08:09:00;98933.00;;;14.00
68510;BMP180;55512;50.102;19.958;2023-05-10T08:11:26;98932.80;;;14.10
68510;BMP180;55512;50.102;19.958;2023-05-10T08:13:53;98933.00;;;14.20
68510;BMP180;55512;50.102;19.958;2023-05-10T08:16:19;98927.20;;;14.30
68510;BMP180;55512;50.102;19.958;2023-05-10T08:18:46;98926.40;;;14.40
68510;BMP180;55512;50.102;19.958;2023-05-10T08:21:13;98927.40;;;14.50
68510;BMP180;55512;50.102;19.958;2023-05-10T08:23:39;98921.80;;;14.60
68510;BMP180;55512;50.102;19.958;2023-05-10T08:26:05;98921.60;;;14.70
68510;BMP180;55512;50.102;19.958;2023-05-10T08:28:30;98918.80;;;14.80
68510;BMP180;55512;50.102;19.958;2023-05-10T08:30:56;98918.60;;;14.90
68510;BMP180;55512;50.102;19.958;2023-05-10T08:33:21;98913.40;;;14.96
68510;BMP180;55512;50.102;19.958;2023-05-10T08:35:47;98918.20;;;15.02
68510;BMP180;55512;50.102;19.958;2023-05-10T08:38:13;98914.80;;;15.14
68510;BMP180;55512;50.102;19.958;2023-05-10T08:40:42;98920.20;;;15.20
68510;BMP180;55512;50.102;19.958;2023-05-10T08:43:11;98917.20;;;15.30
68510;BMP180;55512;50.102;19.958;2023-05-10T08:45:43;98913.00;;;15.40
68510;BMP180;55512;50.102;19.958;2023-05-10T08:48:11;98917.00;;;15.50
68510;BMP180;55512;50.102;19.958;2023-05-10T08:50:40;98912.40;;;15.60
68510;BMP180;55512;50.102;19.958;2023-05-10T08:53:11;98909.80;;;15.70
68510;BMP180;55512;50.102;19.958;2023-05-10T08:55:37;98913.40;;;15.80
68510;BMP180;55512;50.102;19.958;2023-05-10T08:58:06;98917.00;;;15.90
68510;BMP180;55512;50.102;19.958;2023-05-10T09:00:33;98913.20;;;16.00
68510;BMP180;55512;50.102;19.958;2023-05-10T09:03:00;98916.40;;;16.10
68510;BMP180;55512;50.102;19.958;2023-05-10T09:05:26;98914.20;;;16.18
68510;BMP180;55512;50.102;19.958;2023-05-10T09:07:52;98920.80;;;16.20
68510;BMP180;55512;50.102;19.958;2023-05-10T09:10:19;98918.80;;;16.30
68510;BMP180;55512;50.102;19.958;2023-05-10T09:12:46;98914.40;;;16.30
68510;BMP180;55512;50.102;19.958;2023-05-10T09:15:15;98919.00;;;16.40
68510;BMP180;55512;50.102;19.958;2023-05-10T09:17:43;98914.00;;;16.50
68510;BMP180;55512;50.102;19.958;2023-05-10T09:20:10;98909.00;;;16.60
68510;BMP180;55512;50.102;19.958;2023-05-10T09:22:35;98911.40;;;16.62
68510;BMP180;55512;50.102;19.958;2023-05-10T09:25:10;98919.60;;;16.78
68510;BMP180;55512;50.102;19.958;2023-05-10T09:27:38;98913.80;;;16.80
68510;BMP180;55512;50.102;19.958;2023-05-10T09:30:08;98915.80;;;16.90
68510;BMP180;55512;50.102;19.958;2023-05-10T09:32:39;98913.40;;;16.92
68510;BMP180;55512;50.102;19.958;2023-05-10T09:35:13;98910.00;;;17.00
68510;BMP180;55512;50.102;19.958;2023-05-10T09:37:41;98917.80;;;17.10
68510;BMP180;55512;50.102;19.958;2023-05-10T09:40:18;98919.80;;;17.20
68510;BMP180;55512;50.102;19.958;2023-05-10T09:42:59;98911.20;;;17.30
68510;BMP180;55512;50.102;19.958;2023-05-10T09:45:29;98920.00;;;17.40
68510;BMP180;55512;50.102;19.958;2023-05-10T09:47:56;98922.00;;;17.40
68510;BMP180;55512;50.102;19.958;2023-05-10T09:50:23;98917.20;;;17.50
68510;BMP180;55512;50.102;19.958;2023-05-10T09:52:49;98916.80;;;17.52
68510;BMP180;55512;50.102;19.958;2023-05-10T09:55:21;98917.60;;;17.60
68510;BMP180;55512;50.102;19.958;2023-05-10T09:57:47;98917.20;;;17.64
68510;BMP180;55512;50.102;19.958;2023-05-10T10:00:20;98913.40;;;17.70
68510;BMP180;55512;50.102;19.958;2023-05-10T10:02:59;98918.60;;;17.80
68510;BMP180;55512;50.102;19.958;2023-05-10T10:05:32;98917.00;;;17.90
68510;BMP180;55512;50.102;19.958;2023-05-10T10:07:59;98918.20;;;17.90
68510;BMP180;55512;50.102;19.958;2023-05-10T10:10:27;98911.20;;;17.98
68510;BMP180;55512;50.102;19.958;2023-05-10T10:12:54;98915.80;;;18.00
68510;BMP180;55512;50.102;19.958;2023-05-10T10:15:21;98913.00;;;18.10
68510;BMP180;55512;50.102;19.958;2023-05-10T10:17:50;98912.60;;;18.10
68510;BMP180;55512;50.102;19.958;2023-05-10T10:20:17;98906.20;;;18.20
68510;BMP180;55512;50.102;19.958;2023-05-10T10:22:43;98910.20;;;18.20
68510;BMP180;55512;50.102;19.958;2023-05-10T10:25:11;98907.80;;;18.30
68510;BMP180;55512;50.102;19.958;2023-05-10T10:30:42;98902.40;;;18.40
68510;BMP180;55512;50.102;19.958;2023-05-10T10:33:36;98901.60;;;18.50
68510;BMP180;55512;50.102;19.958;2023-05-10T10:36:04;98896.20;;;18.50
68510;BMP180;55512;50.102;19.958;2023-05-10T10:47:23;98890.40;;;18.72
68510;BMP180;55512;50.102;19.958;2023-05-10T10:52:40;98890.60;;;18.90
68510;BMP180;55512;50.102;19.958;2023-05-10T10:55:20;98884.80;;;18.90
68510;BMP180;55512;50.102;19.958;2023-05-10T10:57:53;98885.60;;;19.00
68510;BMP180;55512;50.102;19.958;2023-05-10T11:00:35;98883.60;;;19.04
68510;BMP180;55512;50.102;19.958;2023-05-10T11:03:10;98881.00;;;19.10
68510;BMP180;55512;50.102;19.958;2023-05-10T11:05:44;98868.60;;;19.20
68510;BMP180;55512;50.102;19.958;2023-05-10T11:08:29;98870.60;;;19.30
68510;BMP180;55512;50.102;19.958;2023-05-10T11:13:48;98871.40;;;19.40
68510;BMP180;55512;50.102;19.958;2023-05-10T11:16:21;98863.40;;;19.50
68510;BMP180;55512;50.102;19.958;2023-05-10T11:21:31;98862.80;;;19.60
68510;BMP180;55512;50.102;19.958;2023-05-10T11:24:00;98874.00;;;19.70
68510;BMP180;55512;50.102;19.958;2023-05-10T11:26:31;98868.00;;;19.76
68510;BMP180;55512;50.102;19.958;2023-05-10T11:28:57;98866.20;;;19.80
68510;BMP180;55512;50.102;19.958;2023-05-10T11:31:27;98864.80;;;19.80
68510;BMP180;55512;50.102;19.958;2023-05-10T11:33:58;98864.60;;;19.90
68510;BMP180;55512;50.102;19.958;2023-05-10T11:36:32;98865.60;;;19.90
68510;BMP180;55512;50.102;19.958;2023-05-10T11:38:58;98862.60;;;20.02
68510;BMP180;55512;50.102;19.958;2023-05-10T11:41:26;98865.20;;;20.10
68510;BMP180;55512;50.102;19.958;2023-05-10T11:43:54;98871.40;;;20.20
68510;BMP180;55512;50.102;19.958;2023-05-10T11:46:22;98862.20;;;20.28
68510;BMP180;55512;50.102;19.958;2023-05-10T11:48:55;98855.80;;;20.20
68510;BMP180;55512;50.102;19.958;2023-05-10T11:51:25;98854.40;;;20.04
68510;BMP180;55512;50.102;19.958;2023-05-10T11:53:54;98856.00;;;20.00
68510;BMP180;55512;50.102;19.958;2023-05-10T11:56:20;98856.60;;;20.10
68510;BMP180;55512;50.102;19.958;2023-05-10T11:58:54;98854.60;;;20.18
68510;BMP180;55512;50.102;19.958;2023-05-10T12:01:22;98847.60;;;20.30
68510;BMP180;55512;50.102;19.958;2023-05-10T12:03:50;98851.60;;;20.40
68510;BMP180;55512;50.102;19.958;2023-05-10T12:06:17;98863.20;;;20.50
68510;BMP180;55512;50.102;19.958;2023-05-10T12:08:48;98850.40;;;20.60
68510;BMP180;55512;50.102;19.958;2023-05-10T12:11:18;98853.00;;;20.70
68510;BMP180;55512;50.102;19.958;2023-05-10T12:13:44;98845.80;;;20.80
68510;BMP180;55512;50.102;19.958;2023-05-10T12:16:21;98850.80;;;21.00
68510;BMP180;55512;50.102;19.958;2023-05-10T12:18:59;98846.60;;;21.08
68510;BMP180;55512;50.102;19.958;2023-05-10T12:21:26;98835.40;;;21.20
68510;BMP180;55512;50.102;19.958;2023-05-10T12:24:00;98834.80;;;21.28
68510;BMP180;55512;50.102;19.958;2023-05-10T12:26:28;98837.20;;;21.40
68510;BMP180;55512;50.102;19.958;2023-05-10T12:28:55;98835.40;;;21.50
68510;BMP180;55512;50.102;19.958;2023-05-10T12:31:21;98840.60;;;21.56
68510;BMP180;55512;50.102;19.958;2023-05-10T12:33:46;98838.40;;;21.60
68510;BMP180;55512;50.102;19.958;2023-05-10T12:36:15;98836.60;;;21.70
68510;BMP180;55512;50.102;19.958;2023-05-10T12:38:44;98832.40;;;21.70
68510;BMP180;55512;50.102;19.958;2023-05-10T12:41:13;98826.00;;;21.84
68510;BMP180;55512;50.102;19.958;2023-05-10T12:43:40;98831.40;;;21.96
68510;BMP180;55512;50.102;19.958;2023-05-10T12:46:16;98836.00;;;22.08
68510;BMP180;55512;50.102;19.958;2023-05-10T12:48:43;98837.80;;;22.16
68510;BMP180;55512;50.102;19.958;2023-05-10T12:51:10;98831.60;;;22.20
68510;BMP180;55512;50.102;19.958;2023-05-10T12:53:41;98826.80;;;22.30
68510;BMP180;55512;50.102;19.958;2023-05-10T12:56:07;98825.00;;;22.36
68510;BMP180;55512;50.102;19.958;2023-05-10T12:58:32;98820.60;;;22.40
68510;BMP180;55512;50.102;19.958;2023-05-10T13:00:59;98822.00;;;22.40
68510;BMP180;55512;50.102;19.958;2023-05-10T13:03:24;98820.00;;;22.50
68510;BMP180;55512;50.102;19.958;2023-05-10T13:05:50;98818.40;;;22.60
68510;BMP180;55512;50.102;19.958;2023-05-10T13:08:16;98821.20;;;22.62
68510;BMP180;55512;50.102;19.958;2023-05-10T13:10:41;98819.20;;;22.70
68510;BMP180;55512;50.102;19.958;2023-05-10T13:13:07;98819.00;;;22.80
68510;BMP180;55512;50.102;19.958;2023-05-10T13:15:34;98819.00;;;22.88
68510;BMP180;55512;50.102;19.958;2023-05-10T13:17:59;98815.40;;;22.90
68510;BMP180;55512;50.102;19.958;2023-05-10T13:20:25;98808.60;;;22.90
68510;BMP180;55512;50.102;19.958;2023-05-10T13:22:52;98805.40;;;23.00
68510;BMP180;55512;50.102;19.958;2023-05-10T13:25:17;98811.80;;;23.10
68510;BMP180;55512;50.102;19.958;2023-05-10T13:27:43;98806.80;;;23.20
68510;BMP180;55512;50.102;19.958;2023-05-10T13:30:09;98807.40;;;23.40
68510;BMP180;55512;50.102;19.958;2023-05-10T13:32:36;98802.20;;;23.50
68510;BMP180;55512;50.102;19.958;2023-05-10T13:35:02;98800.80;;;23.60
68510;BMP180;55512;50.102;19.958;2023-05-10T13:37:30;98807.20;;;23.70
68510;BMP180;55512;50.102;19.958;2023-05-10T13:39:56;98797.00;;;23.80
68510;BMP180;55512;50.102;19.958;2023-05-10T13:42:23;98793.60;;;23.94
68510;BMP180;55512;50.102;19.958;2023-05-10T13:44:49;98785.20;;;24.10
68510;BMP180;55512;50.102;19.958;2023-05-10T13:47:15;98792.00;;;24.20
68510;BMP180;55512;50.102;19.958;2023-05-10T13:49:41;98792.60;;;24.40
68510;BMP180;55512;50.102;19.958;2023-05-10T13:52:07;98788.80;;;24.50
68510;BMP180;55512;50.102;19.958;2023-05-10T13:54:36;98784.00;;;24.60
68510;BMP180;55512;50.102;19.958;2023-05-10T14:00:40;98775.20;;;24.76
68510;BMP180;55512;50.102;19.958;2023-05-10T14:03:06;98761.40;;;24.86
68510;BMP180;55512;50.102;19.958;2023-05-10T14:05:32;98779.00;;;25.00
68510;BMP180;55512;50.102;19.958;2023-05-10T14:07:58;98772.00;;;25.10
68510;BMP180;55512;50.102;19.958;2023-05-10T14:10:23;98771.00;;;25.30
68510;BMP180;55512;50.102;19.958;2023-05-10T14:12:50;98767.00;;;25.40
68510;BMP180;55512;50.102;19.958;2023-05-10T14:15:16;98768.20;;;25.50
68510;BMP180;55512;50.102;19.958;2023-05-10T14:17:41;98771.40;;;25.70
68510;BMP180;55512;50.102;19.958;2023-05-10T14:20:07;98777.20;;;25.80
68510;BMP180;55512;50.102;19.958;2023-05-10T14:22:34;98773.60;;;25.90
68510;BMP180;55512;50.102;19.958;2023-05-10T14:25:00;98774.00;;;26.00
68510;BMP180;55512;50.102;19.958;2023-05-10T14:27:26;98779.20;;;26.00
68510;BMP180;55512;50.102;19.958;2023-05-10T14:29:52;98772.20;;;26.00
68510;BMP180;55512;50.102;19.958;2023-05-10T14:32:18;98772.80;;;26.12
68510;BMP180;55512;50.102;19.958;2023-05-10T14:34:44;98772.40;;;26.40